createdAt,value
2018-07-09T00:00:25.503Z,893.04
2018-07-09T00:01:25.505Z,893.00
2018-07-09T00:02:25.491Z,893.01
2018-07-09T00:03:25.477Z,893.01
2018-07-09T00:04:46.480Z,893.01
2018-07-09T00:05:25.463Z,892.98
2018-07-09T00:06:25.447Z,892.97
2018-07-09T00:07:25.448Z,892.99
2018-07-09T00:08:25.441Z,892.98
2018-07-09T00:09:25.428Z,892.93
2018-07-09T00:10:46.436Z,892.91
2018-07-09T00:11:25.414Z,892.89
2018-07-09T00:12:25.404Z,892.86
2018-07-09T00:13:25.392Z,892.86
2018-07-09T00:14:25.390Z,892.83
2018-07-09T00:15:25.372Z,892.87
2018-07-09T00:16:46.375Z,892.83
2018-07-09T00:17:25.361Z,892.86
2018-07-09T00:18:25.349Z,892.87
2018-07-09T00:19:25.349Z,892.90
2018-07-09T00:20:25.337Z,892.90
2018-07-09T00:21:25.321Z,892.92
2018-07-09T00:22:46.327Z,892.89
2018-07-09T00:23:25.308Z,892.86
2018-07-09T00:24:25.298Z,892.87
2018-07-09T00:25:25.286Z,892.87
2018-07-09T00:26:25.282Z,892.86
2018-07-09T00:27:25.279Z,892.86
2018-07-09T00:28:46.266Z,892.86
2018-07-09T00:29:25.260Z,892.87
2018-07-09T00:30:25.247Z,892.85
2018-07-09T00:31:25.250Z,892.89
2018-07-09T00:32:25.232Z,892.86
2018-07-09T00:33:25.224Z,892.85
2018-07-09T00:34:46.220Z,892.85
2018-07-09T00:35:25.206Z,892.85
2018-07-09T00:36:25.194Z,892.88
2018-07-09T00:37:25.192Z,892.86
2018-07-09T00:38:25.173Z,892.83
2018-07-09T00:39:25.163Z,892.87
2018-07-09T00:40:46.163Z,892.85
2018-07-09T00:41:25.147Z,892.82
2018-07-09T00:42:25.143Z,892.82
2018-07-09T00:43:25.131Z,892.80
2018-07-09T00:44:25.121Z,892.79
2018-07-09T00:45:25.114Z,892.81
2018-07-09T00:46:46.110Z,892.79
2018-07-09T00:47:25.100Z,892.78
2018-07-09T00:48:25.087Z,892.78
2018-07-09T00:49:25.081Z,892.77
2018-07-09T00:50:25.070Z,892.75
2018-07-09T00:51:25.060Z,892.76
2018-07-09T00:52:46.065Z,892.79
2018-07-09T00:53:25.045Z,892.80
2018-07-09T00:54:25.032Z,892.79
2018-07-09T00:55:25.032Z,892.78
2018-07-09T00:56:25.016Z,892.78
2018-07-09T00:57:25.009Z,892.75
2018-07-09T00:58:46.007Z,892.77
2018-07-09T00:59:24.988Z,892.74
2018-07-09T01:00:24.987Z,892.70
2018-07-09T01:01:24.974Z,892.72
2018-07-09T01:02:24.960Z,892.73
2018-07-09T01:03:24.960Z,892.69
2018-07-09T01:04:45.947Z,892.71
2018-07-09T01:05:24.933Z,892.68
2018-07-09T01:06:24.926Z,892.70
2018-07-09T01:07:24.925Z,892.69
2018-07-09T01:08:24.937Z,892.72
2018-07-09T01:09:24.893Z,892.70
2018-07-09T01:10:45.898Z,892.69
2018-07-09T01:11:24.892Z,892.67
2018-07-09T01:12:24.874Z,892.68
2018-07-09T01:13:24.874Z,892.67
2018-07-09T01:14:24.870Z,892.63
2018-07-09T01:15:24.859Z,892.66
2018-07-09T01:16:45.841Z,892.62
2018-07-09T01:17:24.823Z,892.62
2018-07-09T01:18:24.819Z,892.61
2018-07-09T01:19:24.810Z,892.62
2018-07-09T01:20:24.820Z,892.63
2018-07-09T01:21:24.791Z,892.62
2018-07-09T01:22:45.792Z,892.67
2018-07-09T01:23:24.769Z,892.61
2018-07-09T01:24:24.759Z,892.62
2018-07-09T01:25:24.756Z,892.66
2018-07-09T01:26:24.756Z,892.67
2018-07-09T01:27:24.739Z,892.66
2018-07-09T01:28:45.735Z,892.64
2018-07-09T01:29:24.720Z,892.65
2018-07-09T01:30:24.704Z,892.66
2018-07-09T01:31:24.699Z,892.69
2018-07-09T01:32:24.691Z,892.67
2018-07-09T01:33:24.684Z,892.67
2018-07-09T01:34:45.674Z,892.68
2018-07-09T01:35:24.664Z,892.63
2018-07-09T01:36:24.655Z,892.63
2018-07-09T01:37:24.644Z,892.63
2018-07-09T01:38:24.633Z,892.59
2018-07-09T01:39:24.629Z,892.55
2018-07-09T01:40:45.632Z,892.58
2018-07-09T01:41:24.615Z,892.55
2018-07-09T01:42:24.604Z,892.55
2018-07-09T01:43:24.585Z,892.54
2018-07-09T01:44:24.579Z,892.56
2018-07-09T01:45:24.572Z,892.53
2018-07-09T01:46:45.565Z,892.54
2018-07-09T01:47:24.548Z,892.53
2018-07-09T01:48:24.544Z,892.56
2018-07-09T01:49:24.534Z,892.55
2018-07-09T01:50:24.517Z,892.56
2018-07-09T01:51:24.520Z,892.55
2018-07-09T01:52:45.513Z,892.55
2018-07-09T01:53:24.494Z,892.54
2018-07-09T01:54:24.492Z,892.58
2018-07-09T01:55:24.480Z,892.56
2018-07-09T01:56:24.470Z,892.54
2018-07-09T01:57:24.465Z,892.54
2018-07-09T01:58:45.474Z,892.55
2018-07-09T01:59:24.441Z,892.52
2018-07-09T02:00:24.432Z,892.54
2018-07-09T02:01:24.422Z,892.55
2018-07-09T02:02:24.418Z,892.55
2018-07-09T02:03:24.409Z,892.54
2018-07-09T02:04:45.396Z,892.48
2018-07-09T02:05:24.385Z,892.48
2018-07-09T02:06:24.380Z,892.47
2018-07-09T02:07:24.408Z,892.46
2018-07-09T02:08:24.358Z,892.48
2018-07-09T02:09:24.344Z,892.46
2018-07-09T02:10:45.343Z,892.46
2018-07-09T02:11:24.332Z,892.47
2018-07-09T02:12:24.322Z,892.48
2018-07-09T02:13:24.313Z,892.46
2018-07-09T02:14:24.302Z,892.43
2018-07-09T02:15:24.291Z,892.46
2018-07-09T02:16:45.282Z,892.44
2018-07-09T02:17:24.281Z,892.43
2018-07-09T02:18:24.265Z,892.41
2018-07-09T02:19:24.256Z,892.40
2018-07-09T02:20:24.297Z,892.39
2018-07-09T02:21:24.232Z,892.36
2018-07-09T02:22:45.232Z,892.36
2018-07-09T02:23:24.221Z,892.36
2018-07-09T02:24:24.207Z,892.34
2018-07-09T02:25:24.202Z,892.33
2018-07-09T02:26:24.186Z,892.31
2018-07-09T02:27:24.181Z,892.36
2018-07-09T02:28:45.175Z,892.32
2018-07-09T02:29:24.168Z,892.35
2018-07-09T02:30:24.151Z,892.30
2018-07-09T02:31:24.144Z,892.31
2018-07-09T02:32:24.134Z,892.27
2018-07-09T02:33:24.124Z,892.24
2018-07-09T02:34:45.118Z,892.28
2018-07-09T02:35:24.102Z,892.23
2018-07-09T02:36:24.091Z,892.24
2018-07-09T02:37:24.093Z,892.25
2018-07-09T02:38:24.073Z,892.25
2018-07-09T02:39:24.073Z,892.24
2018-07-09T02:40:45.066Z,892.21
2018-07-09T02:41:24.045Z,892.20
2018-07-09T02:42:24.041Z,892.16
2018-07-09T02:43:24.032Z,892.20
2018-07-09T02:44:24.024Z,892.20
2018-07-09T02:45:24.016Z,892.14
2018-07-09T02:46:45.010Z,892.20
2018-07-09T02:47:24.005Z,892.21
2018-07-09T02:48:23.984Z,892.17
2018-07-09T02:49:23.972Z,892.18
2018-07-09T02:50:23.966Z,892.17
2018-07-09T02:51:23.956Z,892.18
2018-07-09T02:52:44.947Z,892.21
2018-07-09T02:53:23.934Z,892.19
2018-07-09T02:54:23.936Z,892.19
2018-07-09T02:55:23.915Z,892.20
2018-07-09T02:56:23.909Z,892.19
2018-07-09T02:57:23.905Z,892.23
2018-07-09T02:58:44.889Z,892.22
2018-07-09T02:59:23.876Z,892.24
2018-07-09T03:00:23.872Z,892.24
2018-07-09T03:01:23.862Z,892.24
2018-07-09T03:02:23.852Z,892.25
2018-07-09T03:03:23.845Z,892.23
2018-07-09T03:04:44.844Z,892.20
2018-07-09T03:05:23.824Z,892.21
2018-07-09T03:06:23.867Z,892.21
2018-07-09T03:07:23.797Z,892.21
2018-07-09T03:08:23.794Z,892.22
2018-07-09T03:09:23.786Z,892.20
2018-07-09T03:10:44.781Z,892.21
2018-07-09T03:11:23.766Z,892.23
2018-07-09T03:12:23.748Z,892.19
2018-07-09T03:13:23.746Z,892.20
2018-07-09T03:14:23.735Z,892.22
2018-07-09T03:15:23.721Z,892.24
2018-07-09T03:16:44.721Z,892.20
2018-07-09T03:17:23.706Z,892.20
2018-07-09T03:18:23.705Z,892.22
2018-07-09T03:19:23.696Z,892.20
2018-07-09T03:20:23.680Z,892.19
2018-07-09T03:21:23.670Z,892.19
2018-07-09T03:22:44.659Z,892.23
2018-07-09T03:23:23.657Z,892.20
2018-07-09T03:24:23.639Z,892.19
2018-07-09T03:25:23.631Z,892.18
2018-07-09T03:26:23.623Z,892.20
2018-07-09T03:27:23.614Z,892.20
2018-07-09T03:28:44.607Z,892.20
2018-07-09T03:29:23.594Z,892.22
2018-07-09T03:30:23.582Z,892.22
2018-07-09T03:31:23.573Z,892.19
2018-07-09T03:32:23.569Z,892.23
2018-07-09T03:33:23.557Z,892.20
2018-07-09T03:34:44.557Z,892.24
2018-07-09T03:35:23.544Z,892.20
2018-07-09T03:36:23.525Z,892.21
2018-07-09T03:37:23.519Z,892.21
2018-07-09T03:38:23.508Z,892.22
2018-07-09T03:39:23.507Z,892.22
2018-07-09T03:40:44.500Z,892.19
2018-07-09T03:41:23.470Z,892.20
2018-07-09T03:42:23.472Z,892.18
2018-07-09T03:43:23.464Z,892.17
2018-07-09T03:44:23.458Z,892.20
2018-07-09T03:45:23.441Z,892.19
2018-07-09T03:46:44.439Z,892.19
2018-07-09T03:47:23.428Z,892.23
2018-07-09T03:48:23.413Z,892.21
2018-07-09T03:49:23.415Z,892.24
2018-07-09T03:50:23.403Z,892.23
2018-07-09T03:51:23.388Z,892.25
2018-07-09T03:52:44.376Z,892.28
2018-07-09T03:53:23.367Z,892.27
2018-07-09T03:54:23.360Z,892.26
2018-07-09T03:55:23.351Z,892.25
2018-07-09T03:56:23.338Z,892.29
2018-07-09T03:57:23.328Z,892.31
2018-07-09T03:58:44.324Z,892.30
2018-07-09T03:59:23.313Z,892.32
2018-07-09T04:00:23.313Z,892.31
2018-07-09T04:01:23.291Z,892.34
2018-07-09T04:02:23.282Z,892.34
2018-07-09T04:03:23.277Z,892.35
2018-07-09T04:04:44.269Z,892.34
2018-07-09T04:05:23.257Z,892.36
2018-07-09T04:06:23.247Z,892.36
2018-07-09T04:07:23.238Z,892.34
2018-07-09T04:08:23.222Z,892.34
2018-07-09T04:09:23.232Z,892.31
2018-07-09T04:10:44.214Z,892.36
2018-07-09T04:11:23.199Z,892.36
2018-07-09T04:12:23.188Z,892.33
2018-07-09T04:13:23.170Z,892.33
2018-07-09T04:14:23.172Z,892.29
2018-07-09T04:15:23.165Z,892.30
2018-07-09T04:16:44.158Z,892.29
2018-07-09T04:17:23.141Z,892.27
2018-07-09T04:18:23.135Z,892.27
2018-07-09T04:19:23.121Z,892.26
2018-07-09T04:20:23.116Z,892.30
2018-07-09T04:21:23.105Z,892.30
2018-07-09T04:22:44.095Z,892.29
2018-07-09T04:23:23.084Z,892.33
2018-07-09T04:24:23.082Z,892.30
2018-07-09T04:25:23.071Z,892.32
2018-07-09T04:26:23.121Z,892.35
2018-07-09T04:27:23.046Z,892.33
2018-07-09T04:28:44.047Z,892.31
2018-07-09T04:29:23.032Z,892.33
2018-07-09T04:30:23.019Z,892.36
2018-07-09T04:31:23.011Z,892.33
2018-07-09T04:32:23.004Z,892.37
2018-07-09T04:33:22.992Z,892.40
2018-07-09T04:34:43.989Z,892.35
2018-07-09T04:35:22.974Z,892.37
2018-07-09T04:36:22.959Z,892.35
2018-07-09T04:37:22.951Z,892.34
2018-07-09T04:38:22.941Z,892.33
2018-07-09T04:39:22.936Z,892.35
2018-07-09T04:40:43.927Z,892.34
2018-07-09T04:41:22.922Z,892.32
2018-07-09T04:42:22.906Z,892.30
2018-07-09T04:43:23.026Z,892.29
2018-07-09T04:44:22.893Z,892.28
2018-07-09T04:45:22.879Z,892.28
2018-07-09T04:46:43.878Z,892.27
2018-07-09T04:47:22.856Z,892.26
2018-07-09T04:48:22.852Z,892.25
2018-07-09T04:49:22.839Z,892.23
2018-07-09T04:50:22.826Z,892.24
2018-07-09T04:51:22.823Z,892.26
2018-07-09T04:52:43.815Z,892.22
2018-07-09T04:53:22.804Z,892.22
2018-07-09T04:54:22.798Z,892.23
2018-07-09T04:55:22.785Z,892.20
2018-07-09T04:56:22.774Z,892.19
2018-07-09T04:57:22.771Z,892.19
2018-07-09T04:58:43.770Z,892.19
2018-07-09T04:59:22.746Z,892.18
2018-07-09T05:00:22.736Z,892.19
2018-07-09T05:01:22.727Z,892.21
2018-07-09T05:02:22.721Z,892.24
2018-07-09T05:03:22.710Z,892.26
2018-07-09T05:04:43.703Z,892.24
2018-07-09T05:05:22.691Z,892.24
2018-07-09T05:06:22.681Z,892.24
2018-07-09T05:07:22.671Z,892.24
2018-07-09T05:08:22.661Z,892.28
2018-07-09T05:09:22.655Z,892.25
2018-07-09T05:10:43.655Z,892.30
2018-07-09T05:11:22.642Z,892.26
2018-07-09T05:12:22.626Z,892.24
2018-07-09T05:13:22.614Z,892.27
2018-07-09T05:14:22.608Z,892.25
2018-07-09T05:15:22.600Z,892.27
2018-07-09T05:16:43.588Z,892.26
2018-07-09T05:17:22.584Z,892.28
2018-07-09T05:18:22.563Z,892.28
2018-07-09T05:19:22.557Z,892.26
2018-07-09T05:20:22.559Z,892.25
2018-07-09T05:21:22.547Z,892.30
2018-07-09T05:22:43.542Z,892.29
2018-07-09T05:23:22.530Z,892.28
2018-07-09T05:24:22.511Z,892.28
2018-07-09T05:25:22.507Z,892.28
2018-07-09T05:26:22.494Z,892.27
2018-07-09T05:27:22.483Z,892.27
2018-07-09T05:28:43.479Z,892.29
2018-07-09T05:29:22.463Z,892.27
2018-07-09T05:30:22.450Z,892.29
2018-07-09T05:31:22.453Z,892.25
2018-07-09T05:32:22.439Z,892.23
2018-07-09T05:33:22.427Z,892.27
2018-07-09T05:34:43.431Z,892.28
2018-07-09T05:35:22.410Z,892.31
2018-07-09T05:36:22.401Z,892.27
2018-07-09T05:37:22.390Z,892.26
2018-07-09T05:38:22.387Z,892.28
2018-07-09T05:39:22.371Z,892.26
2018-07-09T05:40:43.363Z,892.25
2018-07-09T05:41:22.351Z,892.22
2018-07-09T05:42:22.352Z,892.21
2018-07-09T05:43:22.336Z,892.22
2018-07-09T05:44:22.328Z,892.20
2018-07-09T05:45:22.323Z,892.19
2018-07-09T05:46:43.319Z,892.19
2018-07-09T05:47:22.292Z,892.20
2018-07-09T05:48:22.291Z,892.13
2018-07-09T05:49:22.279Z,892.12
2018-07-09T05:50:22.266Z,892.12
2018-07-09T05:51:22.260Z,892.13
2018-07-09T05:52:43.253Z,892.08
2018-07-09T05:53:22.260Z,892.06
2018-07-09T05:54:22.233Z,892.09
2018-07-09T05:55:22.222Z,892.05
2018-07-09T05:56:22.220Z,892.05
2018-07-09T05:57:22.200Z,892.07
2018-07-09T05:58:43.202Z,892.08
2018-07-09T05:59:22.185Z,892.06
2018-07-09T06:00:22.183Z,892.07
2018-07-09T06:01:22.168Z,892.04
2018-07-09T06:02:22.158Z,892.02
2018-07-09T06:03:22.147Z,892.04
2018-07-09T06:04:43.143Z,892.05
2018-07-09T06:05:22.135Z,892.03
2018-07-09T06:06:22.118Z,892.00
2018-07-09T06:07:22.111Z,892.04
2018-07-09T06:08:22.101Z,891.98
2018-07-09T06:09:22.092Z,891.98
2018-07-09T06:10:43.094Z,892.00
2018-07-09T06:11:22.124Z,891.97
2018-07-09T06:12:22.057Z,891.94
2018-07-09T06:13:22.051Z,891.99
2018-07-09T06:14:22.043Z,891.98
2018-07-09T06:15:22.043Z,892.01
2018-07-09T06:16:43.031Z,892.01
2018-07-09T06:17:22.015Z,891.98
2018-07-09T06:18:22.005Z,891.96
2018-07-09T06:19:22.051Z,891.96
2018-07-09T06:20:21.986Z,891.95
2018-07-09T06:21:21.988Z,891.94
2018-07-09T06:22:42.974Z,891.90
2018-07-09T06:23:21.955Z,891.93
2018-07-09T06:24:21.945Z,891.90
2018-07-09T06:25:21.959Z,891.92
2018-07-09T06:26:21.937Z,891.94
2018-07-09T06:27:21.921Z,891.91
2018-07-09T06:28:42.920Z,891.89
2018-07-09T06:29:21.908Z,891.87
2018-07-09T06:30:21.895Z,891.85
2018-07-09T06:31:21.890Z,891.87
2018-07-09T06:32:21.878Z,891.82
2018-07-09T06:33:21.870Z,891.85
2018-07-09T06:34:42.869Z,891.87
2018-07-09T06:35:21.850Z,891.86
2018-07-09T06:36:21.844Z,891.81
2018-07-09T06:37:21.832Z,891.85
2018-07-09T06:38:21.826Z,891.81
2018-07-09T06:39:21.813Z,891.83
2018-07-09T06:40:42.814Z,891.81
2018-07-09T06:41:21.809Z,891.80
2018-07-09T06:42:21.793Z,891.82
2018-07-09T06:43:21.788Z,891.82
2018-07-09T06:44:21.769Z,891.80
2018-07-09T06:45:21.776Z,891.85
2018-07-09T06:46:42.771Z,891.80
2018-07-09T06:47:21.744Z,891.83
2018-07-09T06:48:21.795Z,891.84
2018-07-09T06:49:21.730Z,891.83
2018-07-09T06:50:21.722Z,891.83
2018-07-09T06:51:21.713Z,891.80
2018-07-09T06:52:42.714Z,891.79
2018-07-09T06:53:21.695Z,891.78
2018-07-09T06:54:21.689Z,891.74
2018-07-09T06:55:21.688Z,891.73
2018-07-09T06:56:21.672Z,891.72
2018-07-09T06:57:21.662Z,891.74
2018-07-09T06:58:42.660Z,891.71
2018-07-09T06:59:21.648Z,891.70
2018-07-09T07:00:21.632Z,891.68
2018-07-09T07:01:21.633Z,891.62
2018-07-09T07:02:21.686Z,891.67
2018-07-09T07:03:21.613Z,891.63
2018-07-09T07:04:42.613Z,891.61
2018-07-09T07:05:21.598Z,891.64
2018-07-09T07:06:21.590Z,891.63
2018-07-09T07:07:21.579Z,891.60
2018-07-09T07:08:21.573Z,891.61
2018-07-09T07:09:21.567Z,891.58
2018-07-09T07:10:42.568Z,891.62
2018-07-09T07:11:21.551Z,891.62
2018-07-09T07:12:21.543Z,891.63
2018-07-09T07:13:21.532Z,891.62
2018-07-09T07:14:21.540Z,891.60
2018-07-09T07:15:21.525Z,891.58
2018-07-09T07:16:42.517Z,891.58
2018-07-09T07:17:21.501Z,891.60
2018-07-09T07:18:21.498Z,891.61
2018-07-09T07:19:21.490Z,891.59
2018-07-09T07:20:21.484Z,891.60
2018-07-09T07:21:21.471Z,891.59
2018-07-09T07:22:42.470Z,891.61
2018-07-09T07:23:21.460Z,891.51
2018-07-09T07:24:21.443Z,891.57
2018-07-09T07:25:21.437Z,891.58
2018-07-09T07:26:21.436Z,891.55
2018-07-09T07:27:21.426Z,891.53
2018-07-09T07:28:42.424Z,891.51
2018-07-09T07:29:21.414Z,891.50
2018-07-09T07:30:21.406Z,891.53
2018-07-09T07:31:21.401Z,891.52
2018-07-09T07:32:21.388Z,891.55
2018-07-09T07:33:21.386Z,891.55
2018-07-09T07:34:42.384Z,891.52
2018-07-09T07:35:21.367Z,891.52
2018-07-09T07:36:21.361Z,891.51
2018-07-09T07:37:21.343Z,891.45
2018-07-09T07:38:21.339Z,891.46
2018-07-09T07:39:21.342Z,891.46
2018-07-09T07:40:42.335Z,891.47
2018-07-09T07:41:21.325Z,891.50
2018-07-09T07:42:21.317Z,891.50
2018-07-09T07:43:21.307Z,891.47
2018-07-09T07:44:21.305Z,891.46
2018-07-09T07:45:21.289Z,891.48
2018-07-09T07:46:42.305Z,891.43
2018-07-09T07:47:21.277Z,891.47
2018-07-09T07:48:21.275Z,891.46
2018-07-09T07:49:21.264Z,891.43
2018-07-09T07:50:21.323Z,891.46
2018-07-09T07:51:21.253Z,891.43
2018-07-09T07:52:42.250Z,891.45
2018-07-09T07:53:21.234Z,891.42
2018-07-09T07:54:21.224Z,891.46
2018-07-09T07:55:21.222Z,891.46
2018-07-09T07:56:21.225Z,891.41
2018-07-09T07:57:21.210Z,891.42
2018-07-09T07:58:42.214Z,891.43
2018-07-09T07:59:21.194Z,891.38
2018-07-09T08:00:21.183Z,891.40
2018-07-09T08:01:21.183Z,891.35
2018-07-09T08:02:21.171Z,891.36
2018-07-09T08:03:21.173Z,891.35
2018-07-09T08:04:42.163Z,891.36
2018-07-09T08:05:21.154Z,891.35
2018-07-09T08:06:21.143Z,891.37
2018-07-09T08:07:21.137Z,891.35
2018-07-09T08:08:21.132Z,891.31
2018-07-09T08:09:21.135Z,891.36
2018-07-09T08:10:42.124Z,891.35
2018-07-09T08:11:21.107Z,891.33
2018-07-09T08:13:28.997Z,891.32
2018-07-09T08:14:21.089Z,891.31
2018-07-09T08:15:21.081Z,891.31
2018-07-09T08:16:42.083Z,891.31
2018-07-09T08:17:21.066Z,891.32
2018-07-09T08:18:21.054Z,891.27
2018-07-09T08:19:21.051Z,891.31
2018-07-09T08:20:21.042Z,891.29
2018-07-09T08:21:21.034Z,891.30
2018-07-09T08:22:42.043Z,891.27
2018-07-09T08:23:21.019Z,891.27
2018-07-09T08:24:21.017Z,891.23
2018-07-09T08:25:21.113Z,891.20
2018-07-09T08:26:21.003Z,891.18
2018-07-09T08:27:20.992Z,891.18
2018-07-09T08:28:41.994Z,891.14
2018-07-09T08:29:20.984Z,891.16
2018-07-09T08:30:20.966Z,891.15
2018-07-09T08:31:21.046Z,891.11
2018-07-09T08:32:20.961Z,891.11
2018-07-09T08:33:20.955Z,891.15
2018-07-09T08:34:41.953Z,891.11
2018-07-09T08:35:20.937Z,891.16
2018-07-09T08:36:20.942Z,891.13
2018-07-09T08:37:20.927Z,891.16
2018-07-09T08:38:20.927Z,891.14
2018-07-09T08:39:20.914Z,891.12
2018-07-09T08:40:41.914Z,891.13
2018-07-09T08:41:20.897Z,891.12
2018-07-09T08:42:20.897Z,891.11
2018-07-09T08:43:20.888Z,891.10
2018-07-09T08:44:20.878Z,891.10
2018-07-09T08:45:20.879Z,891.10
2018-07-09T08:46:41.874Z,891.09
2018-07-09T08:47:20.913Z,891.12
2018-07-09T08:48:20.855Z,891.08
2018-07-09T08:49:20.846Z,891.08
2018-07-09T08:50:20.843Z,891.03
2018-07-09T08:51:20.833Z,891.05
2018-07-09T08:52:41.831Z,891.02
2018-07-09T08:53:20.819Z,890.99
2018-07-09T08:54:20.811Z,890.99
2018-07-09T08:55:20.810Z,891.00
2018-07-09T08:56:20.800Z,891.00
2018-07-09T08:57:20.792Z,890.97
2018-07-09T08:58:41.787Z,891.00
2018-07-09T08:59:20.779Z,890.98
2018-07-09T09:00:20.773Z,891.00
2018-07-09T09:01:20.760Z,890.97
2018-07-09T09:02:20.764Z,890.98
2018-07-09T09:03:20.747Z,890.98
2018-07-09T09:04:41.743Z,890.98
2018-07-09T09:05:20.736Z,890.96
2018-07-09T09:06:20.727Z,890.96
2018-07-09T09:07:20.722Z,890.98
2018-07-09T09:08:20.718Z,890.96
2018-07-09T09:09:20.711Z,890.96
2018-07-09T09:10:41.709Z,890.95
2018-07-09T09:11:20.700Z,890.95
2018-07-09T09:12:20.693Z,890.94
2018-07-09T09:13:20.695Z,890.94
2018-07-09T09:14:20.683Z,890.95
2018-07-09T09:15:20.669Z,890.93
2018-07-09T09:16:41.670Z,890.92
2018-07-09T09:17:20.659Z,890.87
2018-07-09T09:18:20.653Z,890.89
2018-07-09T09:19:20.640Z,890.88
2018-07-09T09:20:20.642Z,890.83
2018-07-09T09:21:20.626Z,890.81
2018-07-09T09:22:41.624Z,890.83
2018-07-09T09:23:20.620Z,890.81
2018-07-09T09:24:20.608Z,890.82
2018-07-09T09:25:20.602Z,890.82
2018-07-09T09:26:20.597Z,890.79
2018-07-09T09:27:20.597Z,890.83
2018-07-09T09:28:41.594Z,890.79
2018-07-09T09:29:20.574Z,890.80
2018-07-09T09:30:20.572Z,890.83
2018-07-09T09:31:20.676Z,890.83
2018-07-09T09:32:20.554Z,890.81
2018-07-09T09:33:20.546Z,890.81
2018-07-09T09:34:41.556Z,890.81
2018-07-09T09:35:20.527Z,890.83
2018-07-09T09:36:20.529Z,890.80
2018-07-09T09:37:20.530Z,890.79
2018-07-09T09:38:20.515Z,890.80
2018-07-09T09:39:20.511Z,890.80
2018-07-09T09:40:41.509Z,890.79
2018-07-09T09:41:20.495Z,890.75
2018-07-09T09:42:20.487Z,890.74
2018-07-09T09:43:20.474Z,890.71
2018-07-09T09:44:20.470Z,890.70
2018-07-09T09:45:20.471Z,890.73
2018-07-09T09:46:41.468Z,890.72
2018-07-09T09:47:20.453Z,890.72
2018-07-09T09:48:20.447Z,890.68
2018-07-09T09:49:20.445Z,890.70
2018-07-09T09:50:20.440Z,890.67
2018-07-09T09:51:20.424Z,890.66
2018-07-09T09:52:41.424Z,890.69
2018-07-09T09:53:20.413Z,890.67
2018-07-09T09:54:20.411Z,890.65
2018-07-09T09:55:20.399Z,890.66
2018-07-09T09:56:20.391Z,890.65
2018-07-09T09:57:20.402Z,890.66
2018-07-09T09:58:41.393Z,890.65
2018-07-09T09:59:20.376Z,890.64
2018-07-09T10:00:20.376Z,890.64
2018-07-09T10:01:20.358Z,890.63
2018-07-09T10:02:20.352Z,890.58
2018-07-09T10:03:20.355Z,890.60
2018-07-09T10:04:41.346Z,890.58
2018-07-09T10:05:20.333Z,890.60
2018-07-09T10:06:20.329Z,890.58
2018-07-09T10:07:20.326Z,890.61
2018-07-09T10:08:20.314Z,890.56
2018-07-09T10:09:20.312Z,890.57
2018-07-09T10:10:41.310Z,890.54
2018-07-09T10:11:20.314Z,890.56
2018-07-09T10:12:20.292Z,890.52
2018-07-09T10:13:20.280Z,890.51
2018-07-09T10:14:20.275Z,890.52
2018-07-09T10:15:20.271Z,890.55
2018-07-09T10:16:41.270Z,890.53
2018-07-09T10:17:20.263Z,890.58
2018-07-09T10:18:20.251Z,890.58
2018-07-09T10:19:20.247Z,890.59
2018-07-09T10:20:20.241Z,890.58
2018-07-09T10:21:20.227Z,890.58
2018-07-09T10:22:41.232Z,890.63
2018-07-09T10:23:20.322Z,890.59
2018-07-09T10:24:20.210Z,890.58
2018-07-09T10:25:20.211Z,890.58
2018-07-09T10:26:20.201Z,890.61
2018-07-09T10:27:20.199Z,890.61
2018-07-09T10:28:41.196Z,890.61
2018-07-09T10:29:20.184Z,890.58
2018-07-09T10:30:20.180Z,890.61
2018-07-09T10:31:20.167Z,890.62
2018-07-09T10:32:20.163Z,890.61
2018-07-09T10:33:20.172Z,890.63
2018-07-09T10:34:41.159Z,890.63
2018-07-09T10:35:20.145Z,890.62
2018-07-09T10:36:20.131Z,890.63
2018-07-09T10:37:20.135Z,890.62
2018-07-09T10:38:20.127Z,890.62
2018-07-09T10:39:20.119Z,890.61
2018-07-09T10:40:41.120Z,890.62
2018-07-09T10:41:20.108Z,890.61
2018-07-09T10:42:20.100Z,890.59
2018-07-09T10:43:20.098Z,890.56
2018-07-09T10:44:20.087Z,890.56
2018-07-09T10:45:20.081Z,890.57
2018-07-09T10:46:41.087Z,890.54
2018-07-09T10:47:20.074Z,890.58
2018-07-09T10:48:20.070Z,890.53
2018-07-09T10:49:20.059Z,890.53
2018-07-09T10:50:20.050Z,890.51
2018-07-09T10:51:20.051Z,890.51
2018-07-09T10:52:41.051Z,890.51
2018-07-09T10:53:20.033Z,890.50
2018-07-09T10:54:20.035Z,890.45
2018-07-09T10:55:20.125Z,890.52
2018-07-09T10:56:20.018Z,890.51
2018-07-09T10:57:20.020Z,890.48
2018-07-09T10:58:41.016Z,890.49
2018-07-09T10:59:20.006Z,890.48
2018-07-09T11:00:19.988Z,890.45
2018-07-09T11:01:19.987Z,890.46
2018-07-09T11:02:19.988Z,890.41
2018-07-09T11:03:19.977Z,890.38
2018-07-09T11:04:40.974Z,890.37
2018-07-09T11:05:19.969Z,890.38
2018-07-09T11:06:19.957Z,890.38
2018-07-09T11:07:19.957Z,890.39
2018-07-09T11:08:19.943Z,890.39
2018-07-09T11:09:19.940Z,890.37
2018-07-09T11:10:40.946Z,890.34
2018-07-09T11:11:19.928Z,890.36
2018-07-09T11:12:19.926Z,890.36
2018-07-09T11:13:19.925Z,890.36
2018-07-09T11:14:19.916Z,890.35
2018-07-09T11:15:19.914Z,890.34
2018-07-09T11:16:40.908Z,890.33
2018-07-09T11:17:19.900Z,890.33
2018-07-09T11:18:19.897Z,890.33
2018-07-09T11:19:19.887Z,890.31
2018-07-09T11:20:19.882Z,890.27
2018-07-09T11:21:19.871Z,890.29
2018-07-09T11:22:40.877Z,890.29
2018-07-09T11:23:19.868Z,890.27
2018-07-09T11:24:19.853Z,890.24
2018-07-09T11:25:19.847Z,890.24
2018-07-09T11:26:19.861Z,890.20
2018-07-09T11:27:19.845Z,890.22
2018-07-09T11:28:40.851Z,890.25
2018-07-09T11:29:19.847Z,890.20
2018-07-09T11:30:19.826Z,890.21
2018-07-09T11:31:19.823Z,890.17
2018-07-09T11:32:19.808Z,890.20
2018-07-09T11:33:19.807Z,890.16
2018-07-09T11:34:40.812Z,890.13
2018-07-09T11:35:19.814Z,890.16
2018-07-09T11:36:19.809Z,890.15
2018-07-09T11:37:19.797Z,890.11
2018-07-09T11:38:19.781Z,890.15
2018-07-09T11:39:19.781Z,890.14
2018-07-09T11:40:40.777Z,890.10
2018-07-09T11:41:19.765Z,890.16
2018-07-09T11:42:19.765Z,890.11
2018-07-09T11:43:19.758Z,890.09
2018-07-09T11:44:19.754Z,890.10
2018-07-09T11:45:19.744Z,890.15
2018-07-09T11:46:40.746Z,890.17
2018-07-09T11:47:19.739Z,890.14
2018-07-09T11:48:19.738Z,890.13
2018-07-09T11:49:19.720Z,890.07
2018-07-09T11:50:19.724Z,890.08
2018-07-09T11:51:19.710Z,890.02
2018-07-09T11:52:40.719Z,890.06
2018-07-09T11:53:19.701Z,890.04
2018-07-09T11:54:19.701Z,890.03
2018-07-09T11:55:19.695Z,890.05
2018-07-09T11:56:19.693Z,890.05
2018-07-09T11:57:19.679Z,890.04
2018-07-09T11:58:40.737Z,889.98
2018-07-09T11:59:19.676Z,890.02
2018-07-09T12:00:19.670Z,890.06
2018-07-09T12:01:19.668Z,890.07
2018-07-09T12:02:19.660Z,890.02
2018-07-09T12:03:19.661Z,890.01
2018-07-09T12:04:40.669Z,890.03
2018-07-09T12:05:19.660Z,890.04
2018-07-09T12:06:19.642Z,889.99
2018-07-09T12:07:19.633Z,890.01
2018-07-09T12:08:19.639Z,889.98
2018-07-09T12:09:19.627Z,889.98
2018-07-09T12:10:40.629Z,889.96
2018-07-09T12:11:19.634Z,889.96
2018-07-09T12:12:19.614Z,889.94
2018-07-09T12:13:19.606Z,889.97
2018-07-09T12:14:19.601Z,889.94
2018-07-09T12:15:19.593Z,889.92
2018-07-09T12:16:40.599Z,889.87
2018-07-09T12:17:19.587Z,889.95
2018-07-09T12:18:19.592Z,889.94
2018-07-09T12:19:19.575Z,889.92
2018-07-09T12:20:19.573Z,889.96
2018-07-09T12:21:19.609Z,889.93
2018-07-09T12:22:40.570Z,889.90
2018-07-09T12:23:19.554Z,889.91
2018-07-09T12:24:19.553Z,889.90
2018-07-09T12:25:19.554Z,889.86
2018-07-09T12:26:19.550Z,889.84
2018-07-09T12:27:19.538Z,889.80
2018-07-09T12:28:40.552Z,889.81
2018-07-09T12:29:19.544Z,889.84